• Join FlightAware (Why Join?)
  • Login
  • US Flag 
03:24AM EDT


 

Airport Tracker/Info


-or-


 

Live Flight TrackerFlight Track Log ✈ ASQ6115 ✈ 19-Apr-2013 ✈ KORD - KMSN

Flight Track Log - Related Links

Times and Time Zones

All times are in EDT time to prevent confusion due to time zone crossing. See the ASQ6115 flight status page for this flight to view local times or setup timezone preferences in your user account.

Time Position Orientation Groundspeed Altitude Reporting Facility
EDT Latitude Longitude Course Direction KTS MPH feet Rate Location/Type
08:18PM 42.0333 -87.9667 340° North 182 209 3,700  Level Chicago TRACON
08:19PM 42.0833 -88.0167 323° Northwest 228 262 5,100 420 Climbing Chicago TRACON
08:21PM 42.1892 -88.0456 349° North 245 282 5,000 840 Descending Chicago Center
08:22PM 42.2722 -88.0364 North 250 288 7,700 2,460 Climbing Chicago Center
08:23PM 42.4102 -88.0468 340° North  Level FlightAware Approximate
08:23PM 42.3444 -88.0306 North 265 305 10,100  Level Chicago Center
08:24PM 42.4242 -88.0239 North 284 327 11,300 1,020 Climbing Chicago Center
08:25PM 42.5158 -88.0153 North 323 372 12,300 1,020 Climbing Chicago Center
08:26PM 42.6247 -88.0356 352° North 346 398 13,500 780 Climbing Chicago Center
08:27PM 42.7189 -88.0814 340° North 357 411 14,000 240 Climbing Chicago Center
08:28PM 42.8072 -88.1425 333° Northwest 360 414 14,000  Level Chicago Center
08:29PM 42.8525 -88.2592 298° West 347 399 14,000  Level Chicago Center
08:30PM 42.8861 -88.3822 290° West 345 397 14,000  Level Chicago Center
08:31PM 42.9197 -88.5081 290° West 350 403 14,000 -600 Level Chicago Center
08:32PM 42.9525 -88.6275 291° West 338 389 12,800 -1,320 Descending Chicago Center
08:33PM 42.9564 -88.7642 272° West 308 354 11,300 -1,500 Descending Chicago Center
08:34PM 42.9494 -88.8647 265° West 271 312 9,800 -1,440 Descending Chicago Center
08:35PM 42.9394 -88.9575 262° West 250 288 8,400 -1,320 Descending Chicago Center
08:36PM 42.9333 -89.0478 265° West 241 277 7,200 -1,320 Descending Chicago Center
08:37PM 42.9444 -89.1308 280° West 241 277 5,700 -1,500 Descending Chicago Center
08:38PM 42.9781 -89.1969 305° West 222 255 4,200 -1,260 Descending Chicago Center
08:39PM 43.0108 -89.2706 301° West 205 236 3,200 -720 Descending Chicago Center
08:40PM 43.0364 -89.3269 302° West 190 219 2,800 -540 Descending Chicago Center
08:41PM 43.0697 -89.3450 338° Northwest 153 176 2,200 -600 Descending Chicago Center